createdAt,value
2018-07-04T00:31:10.857Z,99.90
2018-07-04T00:46:48.441Z,99.90
2018-07-04T01:04:58.458Z,99.90
2018-07-04T01:10:14.335Z,99.90
2018-07-04T01:12:55.440Z,99.90
2018-07-04T01:23:26.332Z,99.90
2018-07-04T01:28:48.895Z,99.90
2018-07-04T01:31:29.714Z,99.90
2018-07-04T01:41:55.385Z,99.90
2018-07-04T01:52:21.300Z,99.90
2018-07-04T01:55:02.516Z,99.90
2018-07-04T01:57:43.574Z,99.90
2018-07-04T02:21:04.246Z,99.90
2018-07-04T02:28:54.860Z,99.90
2018-07-04T02:34:10.843Z,99.90
2018-07-04T02:39:26.850Z,99.90
2018-07-04T02:42:07.944Z,99.90
2018-07-04T02:44:49.060Z,99.90
2018-07-04T02:52:43.725Z,99.90
2018-07-04T02:55:24.787Z,99.90
2018-07-04T02:58:06.974Z,99.90
2018-07-04T03:00:47.846Z,99.90
2018-07-04T03:08:38.451Z,99.90
2018-07-04T03:16:29.312Z,99.90
2018-07-04T03:19:10.456Z,99.90
2018-07-04T03:21:51.361Z,99.90
2018-07-04T03:27:07.416Z,99.90
2018-07-04T03:29:48.419Z,99.90
2018-07-04T03:35:04.396Z,99.90
2018-07-04T03:42:55.208Z,99.90
2018-07-04T03:50:45.780Z,99.90
2018-07-04T03:58:36.724Z,99.90
2018-07-04T04:03:53.447Z,99.90
2018-07-04T04:06:34.514Z,99.90
2018-07-04T04:11:50.536Z,99.90
2018-07-04T04:14:31.711Z,99.90
2018-07-04T04:17:12.762Z,99.90
2018-07-04T04:30:14.200Z,99.90
2018-07-04T04:40:39.616Z,99.90
2018-07-04T04:43:20.760Z,99.90
2018-07-04T04:46:01.925Z,99.90
2018-07-04T04:48:43.028Z,99.90
2018-07-04T05:12:02.706Z,99.90
2018-07-04T05:43:08.574Z,99.90
2018-07-04T05:50:59.436Z,99.90
2018-07-04T05:58:50.816Z,99.90
2018-07-04T06:01:32.023Z,99.90
2018-07-04T06:06:48.115Z,99.90
2018-07-04T06:19:48.888Z,99.90
2018-07-04T06:22:30.042Z,99.90
2018-07-04T06:32:56.133Z,99.90
2018-07-04T06:47:56.070Z,99.90
2018-07-04T06:55:22.454Z,99.90
2018-07-04T06:57:52.167Z,99.90
2018-07-04T07:00:20.867Z,99.90
2018-07-04T07:05:38.232Z,99.90
2018-07-04T07:13:28.974Z,99.90
2018-07-04T07:21:20.609Z,99.90
2018-07-04T07:26:36.506Z,99.90
2018-07-04T07:34:27.466Z,99.90
2018-07-04T07:39:47.500Z,99.90
2018-07-04T07:45:07.971Z,99.90
2018-07-04T07:55:37.157Z,99.90
2018-07-04T08:00:54.806Z,99.90
2018-07-04T08:03:35.862Z,99.90
2018-07-04T08:06:16.869Z,99.90
2018-07-04T08:11:33.111Z,99.90
2018-07-04T08:16:49.086Z,99.90
2018-07-04T08:19:30.116Z,99.90
2018-07-04T08:24:46.790Z,99.90
2018-07-04T08:35:12.746Z,99.90
2018-07-04T08:43:04.732Z,99.90
2018-07-04T08:45:47.101Z,99.90
2018-07-04T08:56:14.050Z,99.90
2018-07-04T08:58:55.192Z,99.90
2018-07-04T09:01:37.372Z,99.90
2018-07-04T09:09:28.176Z,99.90
2018-07-04T09:14:44.304Z,99.70
2018-07-04T09:17:27.140Z,99.90
2018-07-04T09:20:08.298Z,99.90
2018-07-04T09:25:24.571Z,99.00
2018-07-04T09:30:40.746Z,99.50
2018-07-04T09:35:57.407Z,98.10
2018-07-04T09:49:01.220Z,95.70
2018-07-04T09:56:52.668Z,95.30
2018-07-04T10:02:09.330Z,96.60
2018-07-04T10:22:56.324Z,90.70
2018-07-04T10:38:32.021Z,87.80
2018-07-04T10:41:13.570Z,89.10
2018-07-04T10:43:54.572Z,86.50
2018-07-04T10:49:10.634Z,86.00
2018-07-04T10:51:51.814Z,84.80
2018-07-04T10:54:33.111Z,87.80
2018-07-04T10:59:50.668Z,83.70
2018-07-04T11:10:16.848Z,83.30
2018-07-04T11:18:07.960Z,79.50
2018-07-04T11:25:59.552Z,69.80
2018-07-04T11:28:41.002Z,68.60
2018-07-04T11:36:32.851Z,67.00
2018-07-04T11:41:48.599Z,64.90
2018-07-04T11:49:20.870Z,61.80
2018-07-04T11:54:18.312Z,61.40
2018-07-04T11:59:15.735Z,62.00
2018-07-04T12:14:20.068Z,57.80
2018-07-04T12:19:17.539Z,57.30
2018-07-04T12:21:46.228Z,55.90
2018-07-04T12:24:14.906Z,52.70
2018-07-04T12:39:07.278Z,51.00
2018-07-04T12:54:08.180Z,50.00
2018-07-04T12:59:24.144Z,49.50
2018-07-04T13:07:14.592Z,46.90
2018-07-04T13:15:05.591Z,45.40
2018-07-04T13:38:25.614Z,39.30
2018-07-04T13:43:41.556Z,36.40
2018-07-04T13:46:22.670Z,37.20
2018-07-04T13:59:24.040Z,36.10
2018-07-04T14:09:50.061Z,36.40
2018-07-04T14:12:31.165Z,35.50
2018-07-04T14:17:46.962Z,35.80
2018-07-04T14:25:38.279Z,35.50
2018-07-04T14:36:03.922Z,36.80
2018-07-04T14:38:45.101Z,35.60
2018-07-04T14:49:12.202Z,42.00
2018-07-04T14:59:37.604Z,44.40
2018-07-04T15:02:18.673Z,46.60
2018-07-04T15:10:10.077Z,47.00
2018-07-04T15:23:09.999Z,47.00
2018-07-04T15:28:25.864Z,46.00
2018-07-04T15:41:26.247Z,46.20
2018-07-04T15:59:43.031Z,68.00
2018-07-04T16:10:08.660Z,70.00
2018-07-04T16:15:24.766Z,72.70
2018-07-04T16:20:40.820Z,71.70
2018-07-04T16:25:56.718Z,74.80
2018-07-04T16:28:37.730Z,75.80
2018-07-04T16:33:53.658Z,78.30
2018-07-04T16:41:45.314Z,79.30
2018-07-04T17:05:05.036Z,82.90
2018-07-04T17:23:15.310Z,86.60
2018-07-04T17:36:16.460Z,89.50
2018-07-04T17:44:07.390Z,91.00
2018-07-04T17:49:24.150Z,90.80
2018-07-04T17:59:49.920Z,91.90
2018-07-04T18:05:05.868Z,92.20
2018-07-04T18:12:56.250Z,92.80
2018-07-04T18:15:37.460Z,93.40
2018-07-04T18:33:47.822Z,96.00
2018-07-04T18:46:48.288Z,99.50
2018-07-04T18:59:48.686Z,99.90
2018-07-04T19:20:34.889Z,99.90
2018-07-04T19:25:51.143Z,99.90
2018-07-04T19:28:32.307Z,99.90
2018-07-04T19:31:13.478Z,99.90
2018-07-04T19:33:54.617Z,99.90
2018-07-04T19:39:10.725Z,99.90
2018-07-04T19:44:26.562Z,99.90
2018-07-04T20:05:12.563Z,99.90
2018-07-04T20:10:28.505Z,99.90
2018-07-04T20:26:03.887Z,99.90
2018-07-04T20:28:45.040Z,99.90
2018-07-04T20:49:31.673Z,99.90
2018-07-04T20:52:12.855Z,99.90
2018-07-04T20:54:53.895Z,99.90
2018-07-04T21:02:44.564Z,99.90
2018-07-04T21:05:25.763Z,99.90
2018-07-04T21:21:00.773Z,99.90
2018-07-04T21:49:30.578Z,99.90
2018-07-04T21:54:46.299Z,99.90
2018-07-04T22:10:21.833Z,99.90
2018-07-04T22:18:12.185Z,99.90
2018-07-04T22:23:28.077Z,99.90
2018-07-04T22:26:09.911Z,99.90
2018-07-04T22:49:30.629Z,99.90
2018-07-04T22:54:46.705Z,99.90
2018-07-04T22:57:27.765Z,99.90
2018-07-04T23:05:18.400Z,99.90
2018-07-04T23:10:34.535Z,99.90
2018-07-04T23:13:15.556Z,99.90
2018-07-04T23:33:06.286Z,99.90
2018-07-04T23:40:56.775Z,99.90
2018-07-04T23:43:38.310Z,99.90
2018-07-04T23:51:29.357Z,99.90
2018-07-04T23:54:10.459Z,99.90
